Time;durP1;ratioP1;P1;durP2;ratioP2;P2;SDS_P1;SDS_P2;PMS_P1;PMS_P2;Temp;Humidity;BMP_temperature;BMP_pressure;BME280_temperature;BME280_humidity;BME280_pressure;Samples;Min_cycle;Max_cycle;Signal;HPM_P1;HPM_P2
2022/08/29 00:05:52;;;;;;;19.10;15.50;;;13.90;99.90;;;;;;20726636;28;20438;-54
2022/08/29 00:15:54;;;;;;;24.83;19.33;;;13.80;99.90;;;;;;20726158;28;20041;-57
2022/08/29 00:25:57;;;;;;;36.55;24.33;;;13.90;99.90;;;;;;20725913;28;20088;-57
2022/08/29 00:36:00;;;;;;;50.55;30.38;;;13.90;99.90;;;;;;20723985;28;20474;-60
2022/08/29 00:46:21;;;;;;;46.90;27.27;;;14.00;99.90;;;;;;20709977;28;20406;-56
2022/08/29 00:56:25;;;;;;;56.72;32.83;;;14.00;99.90;;;;;;20758057;28;20042;-58
2022/08/29 01:06:31;;;;;;;34.85;22.55;;;13.80;99.90;;;;;;20802757;28;20049;-58
2022/08/29 01:16:36;;;;;;;24.33;18.52;;;13.70;99.90;;;;;;20796174;28;20049;-58
2022/08/29 01:26:39;;;;;;;28.15;20.45;;;13.70;99.90;;;;;;20820453;28;20053;-52
2022/08/29 01:36:54;;;;;;;39.55;24.42;;;13.60;99.90;;;;;;20803622;28;20065;-56
2022/08/29 01:46:58;;;;;;;48.75;26.90;;;13.50;99.90;;;;;;20768680;28;20441;-57
2022/08/29 01:57:02;;;;;;;37.88;24.08;;;13.40;99.90;;;;;;20753326;28;20088;-53
2022/08/29 02:07:05;;;;;;;58.28;33.03;;;13.40;99.90;;;;;;20752052;28;20034;-56
2022/08/29 02:17:08;;;;;;;16.77;13.00;;;13.40;99.90;;;;;;20720296;28;20081;-58
2022/08/29 02:27:11;;;;;;;21.23;15.60;;;13.30;99.90;;;;;;20734634;28;20455;-55
2022/08/29 02:37:15;;;;;;;32.75;20.63;;;13.10;99.90;;;;;;20733690;28;20045;-58
2022/08/29 02:47:17;;;;;;;37.38;23.50;;;13.00;99.90;;;;;;20711173;28;20042;-55
2022/08/29 02:57:20;;;;;;;36.15;22.80;;;13.10;99.90;;;;;;20747884;28;20092;-55
2022/08/29 03:07:23;;;;;;;31.15;19.77;;;13.10;99.90;;;;;;20730999;28;20042;-54
2022/08/29 03:17:26;;;;;;;27.10;17.55;;;13.00;99.90;;;;;;20748131;28;20088;-52
2022/08/29 03:27:29;;;;;;;27.95;18.33;;;12.90;99.90;;;;;;20729954;28;20026;-58
2022/08/29 03:37:32;;;;;;;20.08;15.43;;;13.10;99.90;;;;;;20729075;28;20033;-59
2022/08/29 03:47:35;;;;;;;25.58;17.60;;;13.10;99.90;;;;;;20674106;28;20042;-54
2022/08/29 03:57:38;;;;;;;19.65;14.38;;;12.90;99.90;;;;;;20743931;28;20034;-59
2022/08/29 04:07:53;;;;;;;16.70;12.45;;;12.60;99.90;;;;;;20741573;28;20037;-54
2022/08/29 04:17:59;;;;;;;15.43;11.77;;;12.60;99.90;;;;;;20725703;28;20030;-57
2022/08/29 04:28:07;;;;;;;15.70;11.35;;;12.50;99.90;;;;;;20710817;28;20041;-59
2022/08/29 04:38:10;;;;;;;17.27;12.80;;;12.40;99.90;;;;;;20724416;28;20089;-54
2022/08/29 04:48:12;;;;;;;29.77;17.45;;;12.30;99.90;;;;;;20697759;28;20045;-54
2022/08/29 04:58:18;;;;;;;31.40;20.42;;;12.40;99.90;;;;;;20741177;28;20042;-53
2022/08/29 05:08:21;;;;;;;46.00;25.48;;;12.40;99.90;;;;;;20739535;28;20390;-59
2022/08/29 05:18:25;;;;;;;47.67;27.20;;;12.60;99.90;;;;;;20730916;28;20328;-55
2022/08/29 05:28:29;;;;;;;59.40;32.92;;;12.70;99.90;;;;;;20755618;28;20069;-55
2022/08/29 05:38:32;;;;;;;68.50;36.90;;;12.90;99.90;;;;;;20754477;28;20549;-55
2022/08/29 05:48:35;;;;;;;73.47;38.75;;;13.10;99.90;;;;;;20790263;28;20132;-59
2022/08/29 05:58:38;;;;;;;73.45;39.55;;;13.70;99.90;;;;;;20818370;28;20103;-55
2022/08/29 06:08:41;;;;;;;77.05;38.45;;;13.90;99.90;;;;;;20834062;28;20505;-59
2022/08/29 06:18:44;;;;;;;53.72;32.10;;;14.00;99.90;;;;;;20816729;28;20095;-58
2022/08/29 06:28:48;;;;;;;52.45;30.88;;;14.00;99.90;;;;;;20831358;28;20061;-56
2022/08/29 06:38:51;;;;;;;20.10;15.98;;;14.30;99.90;;;;;;20815368;28;20041;-56
2022/08/29 06:48:56;;;;;;;11.95;9.52;;;15.30;99.90;;;;;;20750659;28;20095;-57
2022/08/29 06:58:59;;;;;;;12.73;10.00;;;16.60;99.90;;;;;;20731922;28;20092;-59
2022/08/29 07:09:03;;;;;;;11.82;7.63;;;17.80;99.90;;;;;;20748062;28;20470;-59
2022/08/29 07:19:09;;;;;;;7.25;6.55;;;19.30;99.90;;;;;;20714469;28;20038;-59
2022/08/29 07:29:15;;;;;;;6.78;5.78;;;20.60;99.90;;;;;;20729986;28;20552;-60
2022/08/29 07:39:18;;;;;;;7.47;6.70;;;21.70;99.90;;;;;;20728925;28;20483;-58
2022/08/29 07:49:23;;;;;;;7.50;6.70;;;22.50;99.90;;;;;;20744283;28;20049;-58
2022/08/29 07:59:26;;;;;;;7.10;6.40;;;22.70;99.90;;;;;;20744623;28;20042;-57
2022/08/29 08:09:28;;;;;;;6.75;5.70;;;22.80;99.90;;;;;;20726861;28;20030;-58
2022/08/29 08:19:32;;;;;;;6.32;5.63;;;23.40;99.90;;;;;;20742222;28;20442;-57
2022/08/29 08:29:34;;;;;;;5.20;4.70;;;24.00;99.90;;;;;;20741538;28;20139;-58
2022/08/29 08:39:37;;;;;;;6.03;4.95;;;24.90;99.90;;;;;;20740783;28;20030;-56
2022/08/29 08:49:55;;;;;;;7.55;6.72;;;25.70;99.90;;;;;;20739751;28;20042;-54
2022/08/29 08:59:59;;;;;;;6.53;5.80;;;24.30;99.90;;;;;;20723575;28;20069;-54
2022/08/29 09:10:08;;;;;;;6.05;5.40;;;23.60;99.90;;;;;;20739720;28;20038;-60
2022/08/29 09:20:20;;;;;;;5.97;5.38;;;24.40;99.90;;;;;;20739028;28;20482;-54
2022/08/29 09:30:26;;;;;;;9.07;6.75;;;23.80;99.90;;;;;;20738762;28;20038;-54
2022/08/29 09:40:59;;;;;;;7.30;6.60;;;23.40;99.90;;;;;;20738182;28;20383;-58
2022/08/29 09:51:27;;;;;;;7.45;6.13;;;24.50;99.90;;;;;;20737079;28;20054;-59
2022/08/29 10:01:32;;;;;;;9.70;7.60;;;25.90;99.90;;;;;;20740227;28;20045;-60
2022/08/29 10:11:48;;;;;;;8.45;7.65;;;24.90;99.90;;;;;;20752415;28;20038;-60
2022/08/29 10:22:07;;;;;;;10.00;9.10;;;24.50;99.90;;;;;;20734958;28;20331;-60
2022/08/29 10:32:09;;;;;;;8.85;7.95;;;23.30;99.90;;;;;;20750300;28;20372;-61
2022/08/29 10:42:18;;;;;;;11.07;9.98;;;23.50;99.90;;;;;;20749998;28;20343;-60
2022/08/29 10:52:48;;;;;;;11.90;10.52;;;23.20;99.90;;;;;;20748788;28;20046;-58
2022/08/29 11:03:34;;;;;;;10.57;9.48;;;24.40;99.90;;;;;;20731747;28;20092;-59
2022/08/29 11:13:50;;;;;;;14.07;12.55;;;26.10;99.90;;;;;;20747298;28;20494;-60
2022/08/29 11:23:52;;;;;;;12.25;11.05;;;24.50;99.90;;;;;;20746970;28;20560;-54
2022/08/29 11:34:38;;;;;;;11.75;10.65;;;24.70;99.90;;;;;;20729881;28;20038;-60
2022/08/29 11:44:52;;;;;;;12.50;11.20;;;23.50;99.90;;;;;;20415899;29;20040;-60
2022/08/29 11:55:13;;;;;;;12.20;10.73;;;23.10;99.90;;;;;;20394819;28;20462;-59
2022/08/29 12:05:15;;;;;;;11.93;9.43;;;24.30;99.90;;;;;;20450245;28;20052;-58
2022/08/29 12:15:31;;;;;;;10.65;9.65;;;25.60;99.90;;;;;;20604977;28;20045;-59
2022/08/29 12:25:43;;;;;;;11.00;9.50;;;26.00;99.90;;;;;;20823109;28;20038;-59
2022/08/29 12:36:10;;;;;;;12.98;11.00;;;26.00;99.90;;;;;;20823143;28;20095;-59
2022/08/29 12:46:25;;;;;;;11.57;10.43;;;26.60;99.90;;;;;;20739707;28;20038;-60
2022/08/29 12:56:27;;;;;;;8.90;8.10;;;26.50;99.90;;;;;;20740568;28;20041;-54
2022/08/29 13:06:31;;;;;;;11.50;8.70;;;25.80;99.90;;;;;;20723247;28;20459;-57
2022/08/29 13:16:34;;;;;;;8.75;7.80;;;26.40;99.90;;;;;;20739255;28;20426;-58
2022/08/29 13:26:43;;;;;;;7.85;7.05;;;27.40;99.90;;;;;;20739221;28;20037;-60
2022/08/29 13:36:59;;;;;;;9.27;8.30;;;27.30;99.90;;;;;;20742653;28;20045;-56
2022/08/29 13:47:14;;;;;;;11.30;10.17;;;26.20;99.90;;;;;;20691298;28;20407;-52
2022/08/29 13:57:20;;;;;;;9.25;8.35;;;25.30;99.90;;;;;;20656318;28;20039;-57
2022/08/29 14:07:29;;;;;;;10.75;9.75;;;25.90;99.90;;;;;;20724986;28;20096;-57
2022/08/29 14:17:33;;;;;;;9.90;8.40;;;26.80;99.90;;;;;;20753066;28;20038;-60
2022/08/29 14:27:36;;;;;;;9.35;8.07;;;26.90;99.30;;;;;;20751255;28;20038;-57
2022/08/29 14:37:39;;;;;;;9.23;8.35;;;26.50;99.80;;;;;;20693204;28;20031;-55
2022/08/29 14:47:44;;;;;;;13.15;10.18;;;25.60;99.90;;;;;;20651591;28;20045;-55
2022/08/29 14:57:47;;;;;;;14.32;12.93;;;24.30;99.90;;;;;;20748652;28;20562;-56
2022/08/29 15:07:50;;;;;;;12.40;11.20;;;23.80;99.90;;;;;;20731390;28;20046;-55
2022/08/29 15:18:04;;;;;;;14.68;13.15;;;23.50;99.90;;;;;;20730911;28;20097;-55
2022/08/29 15:28:07;;;;;;;14.57;13.05;;;22.70;99.90;;;;;;20746764;28;20038;-54
2022/08/29 15:38:10;;;;;;;19.40;16.27;;;22.20;99.90;;;;;;20713153;28;20033;-54
2022/08/29 15:48:13;;;;;;;20.67;18.50;;;21.60;99.90;;;;;;20728129;28;20101;-61
2022/08/29 15:58:15;;;;;;;19.88;17.65;;;20.80;99.90;;;;;;20743283;28;20037;-61
2022/08/29 16:08:18;;;;;;;25.80;21.77;;;20.10;99.90;;;;;;20742290;28;20092;-61
2022/08/29 16:18:22;;;;;;;26.75;23.85;;;19.80;99.90;;;;;;20725410;28;20373;-60
2022/08/29 16:28:24;;;;;;;25.92;22.90;;;19.60;99.90;;;;;;20724975;28;20046;-54
2022/08/29 16:38:27;;;;;;;25.02;22.33;;;19.40;99.90;;;;;;20740306;28;20486;-60
2022/08/29 16:48:30;;;;;;;28.95;23.65;;;19.30;99.90;;;;;;20723085;28;20332;-59
2022/08/29 17:18:57;;;;;;;23.52;17.95;;;18.40;99.90;;;;;;20721636;28;20046;-51
2022/08/29 17:29:00;;;;;;;19.77;17.63;;;18.20;99.90;;;;;;20721731;28;20143;-59
2022/08/29 17:39:05;;;;;;;23.65;20.02;;;17.90;99.90;;;;;;20737695;28;20102;-54
2022/08/29 17:49:09;;;;;;;22.92;20.48;;;17.60;99.90;;;;;;20736657;28;20037;-53
2022/08/29 17:59:14;;;;;;;24.60;20.63;;;17.40;99.90;;;;;;20736593;28;20034;-53
2022/08/29 18:09:17;;;;;;;30.83;25.10;;;17.10;99.90;;;;;;20738507;28;20034;-58
2022/08/29 18:19:22;;;;;;;30.25;23.75;;;16.70;99.90;;;;;;20737044;28;20046;-54
2022/08/29 18:29:24;;;;;;;37.88;27.73;;;16.60;99.90;;;;;;20747836;28;20030;-56
2022/08/29 18:39:27;;;;;;;41.47;31.02;;;16.50;99.90;;;;;;20750465;28;20490;-54
2022/08/29 18:59:50;;;;;;;41.95;31.92;;;16.60;99.90;;;;;;20731982;28;20054;-52
2022/08/29 19:09:53;;;;;;;43.17;33.88;;;16.90;99.90;;;;;;20747941;28;20081;-53
2022/08/29 19:30:19;;;;;;;51.35;39.15;;;16.60;99.90;;;;;;20746219;28;20041;-53
2022/08/29 19:40:26;;;;;;;46.97;35.83;;;16.50;99.90;;;;;;20745122;28;20109;-51
2022/08/29 19:50:29;;;;;;;51.80;38.58;;;16.60;99.90;;;;;;20744505;28;20046;-59
2022/08/29 20:00:32;;;;;;;56.10;39.80;;;16.50;99.90;;;;;;20727782;28;20490;-52
2022/08/29 20:10:35;;;;;;;48.53;36.10;;;16.40;99.90;;;;;;20743380;28;20093;-59
2022/08/29 20:20:38;;;;;;;48.13;37.97;;;16.40;99.90;;;;;;20710052;28;20417;-54
2022/08/29 20:30:42;;;;;;;45.17;36.00;;;16.30;99.90;;;;;;20709274;28;20088;-53
2022/08/29 20:40:45;;;;;;;45.63;35.65;;;16.30;99.90;;;;;;20741241;28;20118;-54
2022/08/29 20:50:58;;;;;;;46.78;35.05;;;16.40;99.90;;;;;;20739690;28;20050;-59
2022/08/29 21:01:03;;;;;;;46.47;34.40;;;16.50;99.90;;;;;;20723354;28;20042;-53
2022/08/29 21:11:06;;;;;;;45.45;35.67;;;16.50;99.90;;;;;;20739708;28;20029;-49
2022/08/29 21:21:14;;;;;;;41.20;32.78;;;16.40;99.90;;;;;;20722479;28;20030;-52
2022/08/29 21:31:19;;;;;;;56.58;37.53;;;16.30;99.90;;;;;;20723587;28;20038;-53
2022/08/29 21:41:23;;;;;;;58.45;40.38;;;16.00;99.90;;;;;;20723561;28;20550;-52
2022/08/29 21:51:28;;;;;;;68.60;45.42;;;15.60;99.90;;;;;;20721414;28;20045;-59
2022/08/29 22:01:37;;;;;;;61.80;41.90;;;15.40;99.90;;;;;;20714573;28;20034;-59
2022/08/29 22:11:42;;;;;;;63.97;42.03;;;15.30;99.90;;;;;;20753116;28;20550;-52
2022/08/29 22:21:50;;;;;;;75.88;47.15;;;15.20;99.90;;;;;;20735586;28;20379;-59
2022/08/29 22:31:54;;;;;;;58.40;39.65;;;15.10;99.90;;;;;;20751039;28;20037;-59
2022/08/29 22:41:57;;;;;;;50.30;35.63;;;15.40;99.90;;;;;;20733951;28;20033;-59
2022/08/29 22:52:00;;;;;;;44.72;33.65;;;15.90;99.90;;;;;;20749447;28;20053;-52
2022/08/29 23:02:04;;;;;;;45.85;33.63;;;16.20;99.90;;;;;;20732064;28;20423;-59
2022/08/29 23:12:09;;;;;;;45.15;33.08;;;16.40;99.90;;;;;;20747618;28;20391;-59
2022/08/29 23:22:15;;;;;;;39.60;30.92;;;16.60;99.90;;;;;;20700087;28;20120;-59
2022/08/29 23:32:18;;;;;;;37.85;30.70;;;16.70;99.90;;;;;;20730195;28;20033;-58
2022/08/29 23:42:20;;;;;;;39.78;30.45;;;16.80;99.90;;;;;;20745822;28;20034;-53
2022/08/29 23:52:23;;;;;;;39.67;28.88;;;16.80;99.90;;;;;;20728483;28;20457;-60
